Time;durP1;ratioP1;P1;durP2;ratioP2;P2;SDS_P1;SDS_P2;PMS_P1;PMS_P2;Temp;Humidity;BMP_temperature;BMP_pressure;BME280_temperature;BME280_humidity;BME280_pressure;Samples;Min_cycle;Max_cycle;Signal;HPM_P1;HPM_P2
2022/12/20 00:01:36;;;;;;;5.50;5.00;;;11.70;99.90;;;;;;2615264;54;20383;-79
2022/12/20 00:07:23;;;;;;;5.00;4.20;;;11.70;99.90;;;;;;2615340;54;20135;-78
2022/12/20 00:13:12;;;;;;;4.50;4.10;;;11.70;99.90;;;;;;2615094;54;20130;-78
2022/12/20 00:19:02;;;;;;;4.90;4.50;;;11.70;99.90;;;;;;2616704;39;20770;-78
2022/12/20 00:24:50;;;;;;;5.73;4.30;;;11.80;99.90;;;;;;2615971;39;20739;-77
2022/12/20 00:30:37;;;;;;;4.40;4.00;;;11.90;99.90;;;;;;2615344;54;20182;-78
2022/12/20 00:36:27;;;;;;;4.93;4.43;;;11.90;99.90;;;;;;2615653;54;20643;-77
2022/12/20 00:46:15;;;;;;;4.53;4.13;;;11.90;99.90;;;;;;2615789;54;20399;-78
2022/12/20 00:52:03;;;;;;;4.50;4.10;;;11.90;99.90;;;;;;2615565;54;20406;-79
2022/12/20 00:57:51;;;;;;;4.20;3.80;;;11.80;99.90;;;;;;2616064;54;20544;-78
2022/12/20 01:03:39;;;;;;;4.90;4.23;;;11.90;99.90;;;;;;2616636;31;20598;-79
2022/12/20 01:09:27;;;;;;;4.90;4.00;;;11.90;99.90;;;;;;2615396;54;20126;-79
2022/12/20 01:15:14;;;;;;;4.57;3.77;;;11.80;99.90;;;;;;2616362;54;20151;-79
2022/12/20 01:21:05;;;;;;;5.10;4.17;;;11.80;99.90;;;;;;2617097;54;20371;-78
2022/12/20 01:26:53;;;;;;;4.50;4.10;;;11.80;99.90;;;;;;2617188;54;20519;-79
2022/12/20 01:32:41;;;;;;;4.03;3.63;;;11.70;99.90;;;;;;2616315;54;20138;-79
2022/12/20 01:38:29;;;;;;;4.53;3.60;;;12.10;99.90;;;;;;2616081;54;20122;-77
2022/12/20 01:41:43;;;;;;;4.33;4.00;;;11.90;99.90;;;;;;2614729;54;20388;-77
2022/12/20 01:44:18;;;;;;;4.97;3.80;;;12.00;99.90;;;;;;2615535;54;20547;-76
2022/12/20 01:50:07;;;;;;;4.90;4.40;;;12.00;99.90;;;;;;2615966;54;20423;-77
2022/12/20 01:55:55;;;;;;;5.30;4.60;;;12.10;99.90;;;;;;2616049;54;20367;-76
2022/12/20 02:01:43;;;;;;;5.40;4.43;;;12.00;99.90;;;;;;2615712;54;20367;-79
2022/12/20 02:04:46;;;;;;;4.10;3.80;;;11.90;99.90;;;;;;2615706;54;20403;-77
2022/12/20 02:13:35;;;;;;;7.70;4.37;;;12.00;99.90;;;;;;2615543;54;20378;-77
2022/12/20 02:19:29;;;;;;;7.40;4.50;;;11.90;99.90;;;;;;2615776;54;20416;-77
2022/12/20 02:38:37;;;;;;;6.73;4.00;;;11.70;99.90;;;;;;2615800;54;20917;-77
2022/12/20 02:41:41;;;;;;;4.77;4.37;;;11.70;99.90;;;;;;2614621;54;20411;-76
2022/12/20 02:56:42;;;;;;;4.60;4.17;;;11.40;99.90;;;;;;2617692;54;20391;-78
2022/12/20 03:03:21;;;;;;;7.90;3.93;;;11.40;99.90;;;;;;2618632;54;20382;-77
2022/12/20 03:08:41;;;;;;;4.60;4.00;;;11.30;99.90;;;;;;2617725;54;20363;-79
2022/12/20 03:14:29;;;;;;;4.17;3.77;;;11.30;99.90;;;;;;2618517;54;20634;-80
2022/12/20 03:20:17;;;;;;;4.97;3.53;;;11.20;99.90;;;;;;2618143;39;20604;-79
2022/12/20 03:26:06;;;;;;;5.00;3.00;;;11.10;99.90;;;;;;2617574;54;20219;-83
2022/12/20 03:31:54;;;;;;;5.00;3.07;;;10.90;99.90;;;;;;2614508;54;20407;-78
2022/12/20 03:37:41;;;;;;;4.93;4.07;;;10.80;99.90;;;;;;2616591;54;20178;-78
2022/12/20 03:46:51;;;;;;;4.80;4.03;;;10.70;99.90;;;;;;2616154;54;20375;-79
2022/12/20 03:52:39;;;;;;;7.70;5.63;;;10.60;99.90;;;;;;2616541;54;20722;-78
2022/12/20 03:58:27;;;;;;;7.73;3.77;;;10.60;99.90;;;;;;2616923;54;20217;-78
2022/12/20 04:04:15;;;;;;;5.73;3.87;;;10.60;99.90;;;;;;2616739;54;20134;-78
2022/12/20 04:10:04;;;;;;;6.30;4.80;;;10.50;99.90;;;;;;2615934;54;20399;-77
2022/12/20 04:15:51;;;;;;;6.13;4.00;;;10.70;99.90;;;;;;2615603;54;20420;-78
2022/12/20 04:21:39;;;;;;;4.83;4.00;;;10.70;99.90;;;;;;2616246;54;20150;-78
2022/12/20 04:27:26;;;;;;;6.97;4.03;;;10.60;99.90;;;;;;2616328;54;20408;-78
2022/12/20 04:33:14;;;;;;;6.40;4.77;;;10.70;99.90;;;;;;2617269;39;20462;-78
2022/12/20 04:39:02;;;;;;;4.87;4.37;;;10.60;99.90;;;;;;2616533;46;20600;-78
2022/12/20 04:42:14;;;;;;;13.97;4.57;;;10.60;99.90;;;;;;2616179;54;20423;-78
2022/12/20 04:44:40;;;;;;;4.70;4.13;;;10.60;99.90;;;;;;2617556;54;20419;-79
2022/12/20 04:50:27;;;;;;;6.00;4.53;;;10.60;99.90;;;;;;2617142;39;20537;-79
2022/12/20 05:06:27;;;;;;;7.17;5.23;;;10.40;99.90;;;;;;2617133;54;20395;-80
2022/12/20 05:12:14;;;;;;;6.93;4.77;;;10.20;99.90;;;;;;2619477;54;20170;-81
2022/12/20 05:18:01;;;;;;;7.47;4.63;;;10.30;99.90;;;;;;2615485;54;20246;-80
2022/12/20 05:29:54;;;;;;;6.60;4.60;;;10.20;99.90;;;;;;2618471;54;20486;-80
2022/12/20 05:35:42;;;;;;;6.00;5.00;;;10.20;99.90;;;;;;2618163;54;20179;-78
2022/12/20 05:41:29;;;;;;;5.03;4.47;;;10.30;99.90;;;;;;2614241;54;20138;-78
2022/12/20 05:47:16;;;;;;;6.30;4.43;;;10.20;99.90;;;;;;2615615;54;20190;-77
2022/12/20 05:50:32;;;;;;;7.07;4.20;;;10.20;99.90;;;;;;2616508;54;21028;-78
2022/12/20 05:56:19;;;;;;;5.30;4.50;;;10.40;99.90;;;;;;2616142;54;20426;-77
2022/12/20 06:02:09;;;;;;;10.83;5.80;;;10.40;99.90;;;;;;2613553;54;20203;-80
2022/12/20 06:07:57;;;;;;;5.67;4.73;;;10.50;99.90;;;;;;2616445;54;20380;-79
2022/12/20 06:13:45;;;;;;;7.00;5.20;;;10.60;99.90;;;;;;2615855;54;20138;-78
2022/12/20 06:19:33;;;;;;;5.53;5.03;;;10.80;99.90;;;;;;2617304;54;20943;-80
2022/12/20 06:25:20;;;;;;;7.20;4.90;;;10.80;99.90;;;;;;2614385;54;20247;-79
2022/12/20 06:31:09;;;;;;;5.60;4.37;;;10.80;99.90;;;;;;2615343;54;20134;-77
2022/12/20 06:33:36;;;;;;;9.67;4.90;;;10.90;99.90;;;;;;2608214;54;20431;-79
2022/12/20 06:36:02;;;;;;;9.30;5.10;;;10.90;99.90;;;;;;2613313;54;20465;-78
2022/12/20 06:41:50;;;;;;;6.37;3.83;;;11.00;99.90;;;;;;2614194;54;20452;-78
2022/12/20 06:51:00;;;;;;;6.10;4.00;;;11.10;99.90;;;;;;2612767;54;21036;-80
2022/12/20 06:56:47;;;;;;;3.63;3.13;;;11.10;99.90;;;;;;2615000;54;20655;-78
2022/12/20 07:02:35;;;;;;;4.77;3.77;;;11.20;99.90;;;;;;2612787;54;20161;-78
2022/12/20 07:08:24;;;;;;;5.37;4.20;;;11.10;99.90;;;;;;2613924;54;20238;-77
2022/12/20 07:14:12;;;;;;;4.90;3.87;;;11.20;99.90;;;;;;2613865;54;20540;-78
2022/12/20 07:16:40;;;;;;;5.07;3.40;;;11.30;99.90;;;;;;2612873;47;20440;-77
2022/12/20 07:19:06;;;;;;;4.67;3.47;;;11.40;99.90;;;;;;2614391;54;20143;-77
2022/12/20 07:24:53;;;;;;;5.20;3.63;;;11.50;99.90;;;;;;2615271;54;20157;-77
2022/12/20 07:30:41;;;;;;;6.57;3.30;;;11.60;99.90;;;;;;2614849;54;20129;-77
2022/12/20 07:36:29;;;;;;;4.07;3.67;;;11.50;99.90;;;;;;2614695;54;20166;-77
2022/12/20 07:42:17;;;;;;;4.67;3.57;;;11.40;99.90;;;;;;2614542;54;20126;-77
2022/12/20 07:48:05;;;;;;;7.00;3.10;;;11.40;99.90;;;;;;2616717;54;20498;-79
2022/12/20 07:51:08;;;;;;;3.90;3.10;;;11.40;99.90;;;;;;2616197;54;20535;-80
2022/12/20 07:53:38;;;;;;;4.10;3.37;;;11.40;99.90;;;;;;2615053;54;20427;-79
2022/12/20 07:56:41;;;;;;;3.40;3.10;;;11.60;99.90;;;;;;2615107;54;20431;-79
2022/12/20 07:59:12;;;;;;;4.23;3.40;;;11.50;99.90;;;;;;2614230;47;20427;-79
2022/12/20 08:05:02;;;;;;;6.73;3.23;;;11.50;99.90;;;;;;2616343;54;20415;-79
2022/12/20 08:10:50;;;;;;;4.47;3.67;;;11.50;99.90;;;;;;2617017;54;20387;-79
2022/12/20 08:16:38;;;;;;;5.63;4.10;;;11.50;99.90;;;;;;2616637;54;20446;-78
2022/12/20 08:22:26;;;;;;;3.37;3.07;;;11.60;99.90;;;;;;2617100;54;20127;-78
2022/12/20 08:24:51;;;;;;;4.10;3.20;;;11.80;99.90;;;;;;2615286;47;20415;-79
2022/12/20 08:27:17;;;;;;;4.80;3.33;;;11.90;99.90;;;;;;2615047;54;20182;-78
2022/12/20 08:33:05;;;;;;;4.00;2.87;;;11.80;99.90;;;;;;2614239;54;20135;-78
2022/12/20 08:38:53;;;;;;;3.70;2.90;;;12.00;99.90;;;;;;2615877;54;20154;-79
2022/12/20 08:44:41;;;;;;;4.33;2.90;;;12.00;99.90;;;;;;2614234;54;20162;-77
2022/12/20 08:50:28;;;;;;;5.63;3.30;;;12.10;99.90;;;;;;2614581;39;20545;-78
2022/12/20 08:56:17;;;;;;;10.23;3.70;;;12.10;99.90;;;;;;2615070;54;20209;-78
2022/12/20 08:59:41;;;;;;;6.30;3.73;;;12.20;99.90;;;;;;2615468;54;20442;-78
2022/12/20 09:05:29;;;;;;;3.47;3.17;;;12.10;99.90;;;;;;2616469;54;20455;-78
2022/12/20 09:11:23;;;;;;;4.70;3.70;;;12.20;99.90;;;;;;2614552;54;20138;-78
2022/12/20 09:17:11;;;;;;;3.20;2.90;;;12.10;99.90;;;;;;2615268;54;20980;-79
2022/12/20 09:22:59;;;;;;;5.43;3.47;;;12.10;99.90;;;;;;2616643;54;20162;-78
2022/12/20 09:28:48;;;;;;;4.03;3.17;;;12.10;99.90;;;;;;2615610;54;20395;-79
2022/12/20 09:31:43;;;;;;;3.37;2.73;;;12.30;99.90;;;;;;2613989;50;20423;-78
2022/12/20 09:34:09;;;;;;;3.80;3.40;;;12.20;99.90;;;;;;2613498;54;20416;-78
2022/12/20 09:39:57;;;;;;;4.30;3.93;;;12.30;99.90;;;;;;2616233;54;20366;-78
2022/12/20 09:45:47;;;;;;;3.23;2.87;;;12.20;99.90;;;;;;2615236;54;20363;-78
2022/12/20 09:59:19;;;;;;;5.17;3.97;;;11.90;99.90;;;;;;2616190;54;20423;-78
2022/12/20 10:31:18;;;;;;;4.90;3.40;;;12.10;99.90;;;;;;2615416;54;20447;-79
2022/12/20 10:37:15;;;;;;;3.73;3.40;;;12.20;99.90;;;;;;2616100;54;20395;-79
2022/12/20 10:43:05;;;;;;;5.80;3.63;;;12.30;99.90;;;;;;2615803;39;20685;-79
2022/12/20 10:48:53;;;;;;;4.47;2.73;;;12.30;99.90;;;;;;2614942;54;20394;-79
2022/12/20 10:54:43;;;;;;;4.40;3.37;;;12.50;99.90;;;;;;2615408;54;20628;-78
2022/12/20 11:10:22;;;;;;;5.93;3.90;;;12.50;99.90;;;;;;2615744;39;20767;-79
2022/12/20 11:16:24;;;;;;;4.30;3.00;;;12.50;99.90;;;;;;2615741;54;20975;-77
2022/12/20 11:22:37;;;;;;;4.20;3.00;;;12.60;99.90;;;;;;2615181;54;20414;-77
2022/12/20 11:28:40;;;;;;;5.00;3.40;;;12.60;99.90;;;;;;2615280;54;20415;-77
2022/12/20 11:47:44;;;;;;;4.10;3.00;;;12.50;99.90;;;;;;2615497;54;20391;-78
2022/12/20 12:04:14;;;;;;;4.23;3.47;;;12.50;99.90;;;;;;2615413;54;20446;-77
2022/12/20 12:14:14;;;;;;;3.23;2.93;;;12.60;99.90;;;;;;2613044;54;20406;-78
2022/12/20 12:24:09;;;;;;;4.80;3.83;;;12.50;99.90;;;;;;2614610;54;20418;-80
2022/12/20 12:29:57;;;;;;;4.60;4.20;;;12.60;99.90;;;;;;2615688;54;20516;-80
2022/12/20 12:40:02;;;;;;;5.80;4.03;;;12.60;99.90;;;;;;2615622;54;20439;-80
2022/12/20 12:45:58;;;;;;;3.70;2.90;;;12.80;99.90;;;;;;2615694;54;20539;-81
2022/12/20 12:51:51;;;;;;;6.13;3.13;;;12.80;99.90;;;;;;2617568;54;20419;-80
2022/12/20 13:08:28;;;;;;;4.73;3.27;;;13.30;99.90;;;;;;2615047;54;20964;-81
2022/12/20 13:21:30;;;;;;;6.73;3.83;;;12.30;99.90;;;;;;2614952;54;20391;-80
2022/12/20 13:33:50;;;;;;;9.03;4.50;;;11.20;99.90;;;;;;2616977;54;20518;-80
2022/12/20 13:39:37;;;;;;;10.50;4.70;;;11.10;99.90;;;;;;2616038;54;20897;-81
2022/12/20 13:45:25;;;;;;;5.63;3.73;;;11.00;99.90;;;;;;2617036;54;20652;-80
2022/12/20 13:51:24;;;;;;;8.57;5.17;;;11.00;99.90;;;;;;2615644;54;20403;-80
2022/12/20 13:57:20;;;;;;;6.77;4.60;;;11.00;99.90;;;;;;2617123;54;20439;-79
2022/12/20 14:09:34;;;;;;;8.27;3.47;;;10.90;99.90;;;;;;2615723;54;20383;-80
2022/12/20 14:21:40;;;;;;;9.50;4.77;;;10.80;99.90;;;;;;2614576;54;20383;-79
2022/12/20 14:27:34;;;;;;;8.53;4.50;;;10.70;99.90;;;;;;2614498;54;20395;-79
2022/12/20 14:33:31;;;;;;;6.50;4.60;;;10.80;99.90;;;;;;2614572;54;20430;-82
2022/12/20 14:39:25;;;;;;;11.67;5.80;;;10.90;99.90;;;;;;2622848;54;20447;-83
2022/12/20 14:45:12;;;;;;;9.77;6.00;;;10.80;99.90;;;;;;2620158;54;20426;-81
2022/12/20 14:51:04;;;;;;;11.10;4.20;;;10.70;99.90;;;;;;2615500;54;20123;-82
2022/12/20 14:56:53;;;;;;;6.97;4.77;;;10.70;99.90;;;;;;2615778;54;20419;-81
2022/12/20 15:09:04;;;;;;;13.23;5.17;;;10.70;99.90;;;;;;2616034;54;21008;-81
2022/12/20 15:18:26;;;;;;;13.00;5.97;;;10.60;99.90;;;;;;2612956;54;20395;-82
2022/12/20 15:24:18;;;;;;;7.87;6.20;;;10.60;99.90;;;;;;2613710;54;20420;-81
2022/12/20 15:30:11;;;;;;;5.30;4.40;;;10.70;99.90;;;;;;2614296;39;20793;-79
2022/12/20 15:35:58;;;;;;;8.07;4.70;;;10.70;99.90;;;;;;2614906;54;20415;-79
2022/12/20 15:41:48;;;;;;;8.50;4.87;;;10.70;99.90;;;;;;2615381;54;20150;-79
2022/12/20 15:47:35;;;;;;;6.80;4.50;;;10.60;99.90;;;;;;2614782;39;20738;-79
2022/12/20 15:50:17;;;;;;;7.97;4.70;;;10.60;99.90;;;;;;2616095;46;20427;-82
2022/12/20 15:52:43;;;;;;;9.07;5.33;;;10.60;99.90;;;;;;2616311;54;20154;-81
2022/12/20 15:58:31;;;;;;;8.93;7.90;;;10.60;99.90;;;;;;2618191;54;20435;-82
2022/12/20 16:04:20;;;;;;;8.13;5.37;;;10.60;99.90;;;;;;2617566;54;20154;-83
2022/12/20 16:07:14;;;;;;;7.57;5.10;;;10.60;99.90;;;;;;2617524;54;20462;-81
2022/12/20 16:09:39;;;;;;;9.53;7.77;;;10.60;99.90;;;;;;2617115;54;20396;-80
2022/12/20 16:15:27;;;;;;;6.30;5.47;;;10.60;99.90;;;;;;2615787;54;20178;-81
2022/12/20 16:21:24;;;;;;;9.93;5.37;;;10.60;99.90;;;;;;2616244;54;20162;-79
2022/12/20 16:27:12;;;;;;;6.50;5.33;;;10.60;99.90;;;;;;2616271;54;21039;-80
2022/12/20 16:33:00;;;;;;;6.13;5.27;;;10.70;99.90;;;;;;2615587;54;20138;-79
2022/12/20 16:38:48;;;;;;;5.53;4.17;;;10.70;99.90;;;;;;2614604;54;20142;-79
2022/12/20 16:44:36;;;;;;;6.37;4.73;;;10.70;99.90;;;;;;2616905;54;20411;-79
2022/12/20 16:50:26;;;;;;;11.80;7.10;;;10.60;99.90;;;;;;2614895;54;20422;-79
2022/12/20 16:56:14;;;;;;;8.43;5.30;;;10.60;99.90;;;;;;2615614;54;20487;-79
2022/12/20 17:11:48;;;;;;;6.70;5.43;;;10.60;99.90;;;;;;2616200;54;20415;-79
2022/12/20 17:17:36;;;;;;;7.13;5.10;;;10.70;99.90;;;;;;2615882;46;20398;-79
2022/12/20 17:20:23;;;;;;;7.03;4.50;;;10.70;99.90;;;;;;2615053;54;20424;-79
2022/12/20 17:22:52;;;;;;;6.73;4.63;;;10.80;99.90;;;;;;2615289;54;20143;-79
2022/12/20 17:28:40;;;;;;;6.50;5.00;;;10.70;99.90;;;;;;2616326;54;20375;-79
2022/12/20 17:34:29;;;;;;;8.23;5.00;;;10.70;99.90;;;;;;2615881;39;20601;-79
2022/12/20 17:40:17;;;;;;;9.50;5.30;;;10.60;99.90;;;;;;2613725;39;20833;-80
2022/12/20 17:46:05;;;;;;;8.43;5.33;;;10.50;99.90;;;;;;2614622;54;20399;-79
2022/12/20 17:51:54;;;;;;;13.87;6.70;;;10.50;99.90;;;;;;2615026;54;20131;-79
2022/12/20 17:57:42;;;;;;;9.23;6.70;;;10.60;99.90;;;;;;2614418;54;20423;-79
2022/12/20 18:03:30;;;;;;;8.20;5.60;;;10.70;99.90;;;;;;2613872;54;20134;-78
2022/12/20 18:12:40;;;;;;;9.27;5.80;;;10.80;99.90;;;;;;2616171;54;20955;-82
2022/12/20 18:18:27;;;;;;;5.67;4.30;;;10.90;99.90;;;;;;2616291;39;20530;-81
2022/12/20 18:24:16;;;;;;;5.33;4.77;;;10.80;99.90;;;;;;2615562;54;20150;-82
2022/12/20 18:30:05;;;;;;;11.77;5.73;;;10.80;99.90;;;;;;2615630;54;20398;-81
2022/12/20 18:42:24;;;;;;;9.23;5.67;;;10.50;99.90;;;;;;2617752;54;20386;-81
2022/12/20 18:48:12;;;;;;;6.33;5.63;;;10.40;99.90;;;;;;2615933;54;20154;-82
2022/12/20 18:54:01;;;;;;;7.53;5.73;;;10.30;99.90;;;;;;2616852;54;20172;-82
2022/12/20 18:59:49;;;;;;;7.60;5.73;;;10.40;99.90;;;;;;2616310;39;20803;-80
2022/12/20 19:05:37;;;;;;;9.50;6.80;;;10.40;99.90;;;;;;2613789;54;20378;-82
2022/12/20 19:08:02;;;;;;;8.90;5.90;;;10.40;99.90;;;;;;2614607;54;20955;-80
2022/12/20 19:10:31;;;;;;;8.60;6.07;;;10.30;99.90;;;;;;2614631;54;20238;-80
2022/12/20 19:16:25;;;;;;;11.53;6.73;;;10.30;99.90;;;;;;2614735;54;20399;-83
2022/12/20 19:22:12;;;;;;;9.03;6.60;;;10.30;99.90;;;;;;2614845;47;20465;-83
2022/12/20 19:28:02;;;;;;;10.17;7.53;;;10.30;99.90;;;;;;2616507;46;20161;-81
2022/12/20 19:40:24;;;;;;;10.60;8.07;;;10.40;99.90;;;;;;2611146;39;20780;-81
2022/12/20 19:46:13;;;;;;;11.37;8.23;;;10.40;99.90;;;;;;2613496;54;20134;-81
2022/12/20 19:52:01;;;;;;;11.57;9.20;;;10.50;99.90;;;;;;2610529;54;20399;-80
2022/12/20 19:55:04;;;;;;;13.97;8.57;;;10.50;99.90;;;;;;2610475;54;21065;-82
2022/12/20 19:57:30;;;;;;;14.83;9.30;;;10.40;99.90;;;;;;2613924;47;20174;-83
2022/12/20 20:03:18;;;;;;;11.27;8.00;;;10.40;99.90;;;;;;2616482;54;20728;-82
2022/12/20 20:12:38;;;;;;;12.90;8.50;;;10.50;99.90;;;;;;2615197;54;20387;-81
2022/12/20 20:18:28;;;;;;;9.90;8.80;;;10.40;99.90;;;;;;2616071;54;20407;-82
2022/12/20 20:24:17;;;;;;;13.03;8.90;;;10.50;99.90;;;;;;2618762;54;20395;-82
2022/12/20 20:30:06;;;;;;;13.60;9.50;;;10.50;99.90;;;;;;2619986;54;20407;-82
2022/12/20 20:35:59;;;;;;;10.30;8.53;;;10.40;99.90;;;;;;2619264;54;20394;-83
2022/12/20 20:41:47;;;;;;;11.10;8.73;;;10.50;99.90;;;;;;2619424;47;20400;-81
2022/12/20 20:47:35;;;;;;;18.53;12.03;;;10.40;99.90;;;;;;2619532;54;20122;-82
2022/12/20 20:53:23;;;;;;;14.20;11.77;;;10.40;99.90;;;;;;2618885;54;20134;-82
2022/12/20 20:59:11;;;;;;;16.27;10.73;;;10.50;99.90;;;;;;2618967;39;20549;-79
2022/12/20 21:04:59;;;;;;;13.37;9.83;;;10.40;99.90;;;;;;2616808;54;20142;-78
2022/12/20 21:08:04;;;;;;;12.27;10.20;;;10.50;99.90;;;;;;2615662;47;20414;-79
2022/12/20 21:14:07;;;;;;;14.53;9.60;;;10.50;99.90;;;;;;2615589;54;20455;-80
2022/12/20 21:19:55;;;;;;;12.23;7.53;;;10.50;99.90;;;;;;2615606;39;20791;-79
2022/12/20 21:25:43;;;;;;;13.67;9.43;;;10.60;99.90;;;;;;2616647;54;20182;-79
2022/12/20 21:31:31;;;;;;;9.93;8.17;;;10.60;99.90;;;;;;2616667;54;20655;-78
2022/12/20 21:37:20;;;;;;;12.23;9.60;;;10.60;99.90;;;;;;2616938;54;20126;-79
2022/12/20 21:43:08;;;;;;;15.57;9.80;;;10.60;99.90;;;;;;2617469;54;21014;-78
2022/12/20 21:48:57;;;;;;;11.00;7.80;;;10.70;99.90;;;;;;2616642;54;20138;-79
2022/12/20 21:54:44;;;;;;;11.23;10.00;;;10.70;99.90;;;;;;2617244;54;20390;-82
2022/12/20 22:00:33;;;;;;;10.17;7.70;;;10.70;99.90;;;;;;2616904;54;20131;-81
2022/12/20 22:06:21;;;;;;;12.10;7.73;;;10.70;99.90;;;;;;2615966;54;20359;-81
2022/12/20 22:12:09;;;;;;;15.30;8.13;;;10.80;99.90;;;;;;2616143;54;20182;-82
2022/12/20 22:17:57;;;;;;;11.47;8.60;;;10.80;99.90;;;;;;2616896;54;20150;-81
2022/12/20 22:23:46;;;;;;;9.67;8.30;;;10.80;99.90;;;;;;2616912;54;20165;-79
2022/12/20 22:29:33;;;;;;;12.10;8.57;;;10.80;99.90;;;;;;2616529;54;20415;-80
2022/12/20 22:35:21;;;;;;;10.97;8.80;;;10.80;99.90;;;;;;2616696;54;20138;-81
2022/12/20 22:41:10;;;;;;;10.80;8.67;;;10.80;99.90;;;;;;2615882;54;20383;-81
2022/12/20 22:46:57;;;;;;;12.53;10.50;;;10.70;99.90;;;;;;2616582;54;20359;-81
2022/12/20 22:52:45;;;;;;;14.50;10.30;;;10.70;99.90;;;;;;2616914;54;20146;-81
2022/12/20 22:58:35;;;;;;;12.50;10.10;;;10.70;99.90;;;;;;2616959;54;20126;-81
2022/12/20 23:04:24;;;;;;;13.03;10.50;;;10.70;99.90;;;;;;2622759;54;20406;-81
2022/12/20 23:16:59;;;;;;;15.03;11.70;;;10.60;99.90;;;;;;2616232;39;20772;-79
2022/12/20 23:19:25;;;;;;;15.40;11.63;;;10.70;99.90;;;;;;2615195;47;20420;-79
2022/12/20 23:25:15;;;;;;;16.33;11.80;;;10.60;99.90;;;;;;2614881;54;20422;-79
2022/12/20 23:31:04;;;;;;;14.30;11.60;;;10.70;99.90;;;;;;2615714;54;20398;-79
2022/12/20 23:36:52;;;;;;;15.53;12.03;;;10.60;99.90;;;;;;2615016;54;20399;-79
2022/12/20 23:42:40;;;;;;;15.97;12.67;;;10.60;99.90;;;;;;2616391;54;20404;-79
2022/12/20 23:48:27;;;;;;;16.40;13.13;;;10.60;99.90;;;;;;2616986;54;20158;-78
2022/12/20 23:54:20;;;;;;;16.73;13.30;;;10.60;99.90;;;;;;2617491;54;20415;-78
